sensor_id;sensor_type;location;lat;lon;timestamp;temperature;humidity
2825;DHT22;1420;51.324;12.344;2023-03-01T00:00:17;-0.70;99.90
2825;DHT22;1420;51.324;12.344;2023-03-01T00:02:44;-0.70;99.90
2825;DHT22;1420;51.324;12.344;2023-03-01T00:05:12;-0.60;99.90
2825;DHT22;1420;51.324;12.344;2023-03-01T00:07:39;-0.70;99.90
2825;DHT22;1420;51.324;12.344;2023-03-01T00:10:06;-0.70;99.90
2825;DHT22;1420;51.324;12.344;2023-03-01T00:12:33;-0.60;99.90
2825;DHT22;1420;51.324;12.344;2023-03-01T00:15:01;-0.60;99.90
2825;DHT22;1420;51.324;12.344;2023-03-01T00:17:29;-0.70;99.90
2825;DHT22;1420;51.324;12.344;2023-03-01T00:19:57;-0.70;99.90
2825;DHT22;1420;51.324;12.344;2023-03-01T00:22:24;-0.70;99.90
2825;DHT22;1420;51.324;12.344;2023-03-01T00:24:51;-0.70;99.90
2825;DHT22;1420;51.324;12.344;2023-03-01T00:27:18;-0.70;99.90
2825;DHT22;1420;51.324;12.344;2023-03-01T00:29:46;-0.80;99.90
2825;DHT22;1420;51.324;12.344;2023-03-01T00:32:13;-0.90;99.90
2825;DHT22;1420;51.324;12.344;2023-03-01T00:34:41;-0.80;99.90
2825;DHT22;1420;51.324;12.344;2023-03-01T00:37:08;-0.90;99.90
2825;DHT22;1420;51.324;12.344;2023-03-01T00:39:36;-0.80;99.90
2825;DHT22;1420;51.324;12.344;2023-03-01T00:42:03;-0.90;99.90
2825;DHT22;1420;51.324;12.344;2023-03-01T00:44:30;-0.80;99.90
2825;DHT22;1420;51.324;12.344;2023-03-01T00:46:57;-0.70;99.90
2825;DHT22;1420;51.324;12.344;2023-03-01T00:49:25;-0.90;99.90
2825;DHT22;1420;51.324;12.344;2023-03-01T00:51:53;-0.90;99.90
2825;DHT22;1420;51.324;12.344;2023-03-01T00:54:20;-0.90;99.90
2825;DHT22;1420;51.324;12.344;2023-03-01T00:56:47;-1.00;99.90
2825;DHT22;1420;51.324;12.344;2023-03-01T00:59:15;-0.90;99.90
2825;DHT22;1420;51.324;12.344;2023-03-01T01:01:42;-1.00;99.90
2825;DHT22;1420;51.324;12.344;2023-03-01T01:04:11;-0.90;99.90
2825;DHT22;1420;51.324;12.344;2023-03-01T01:06:39;-1.00;99.90
2825;DHT22;1420;51.324;12.344;2023-03-01T01:09:06;-1.00;99.90
2825;DHT22;1420;51.324;12.344;2023-03-01T01:11:33;-1.00;99.90
2825;DHT22;1420;51.324;12.344;2023-03-01T01:14:00;-0.80;99.90
2825;DHT22;1420;51.324;12.344;2023-03-01T01:16:28;-0.90;99.90
2825;DHT22;1420;51.324;12.344;2023-03-01T01:18:56;-0.90;99.90
2825;DHT22;1420;51.324;12.344;2023-03-01T01:21:23;-1.00;99.90
2825;DHT22;1420;51.324;12.344;2023-03-01T01:23:50;-0.90;99.90
2825;DHT22;1420;51.324;12.344;2023-03-01T01:26:19;-1.10;99.90
2825;DHT22;1420;51.324;12.344;2023-03-01T01:28:46;-1.20;99.90
2825;DHT22;1420;51.324;12.344;2023-03-01T01:31:13;-1.30;99.90
2825;DHT22;1420;51.324;12.344;2023-03-01T01:33:40;-1.20;99.90
2825;DHT22;1420;51.324;12.344;2023-03-01T01:36:08;-1.20;99.90
2825;DHT22;1420;51.324;12.344;2023-03-01T01:38:35;-1.30;99.90
2825;DHT22;1420;51.324;12.344;2023-03-01T01:41:02;-1.10;99.90
2825;DHT22;1420;51.324;12.344;2023-03-01T01:43:33;-1.30;99.90
2825;DHT22;1420;51.324;12.344;2023-03-01T01:46:02;-1.30;99.90
2825;DHT22;1420;51.324;12.344;2023-03-01T01:48:34;-1.40;99.90
2825;DHT22;1420;51.324;12.344;2023-03-01T01:50:57;-1.30;99.90
2825;DHT22;1420;51.324;12.344;2023-03-01T01:53:23;-1.10;99.90
2825;DHT22;1420;51.324;12.344;2023-03-01T01:55:53;-1.20;99.90
2825;DHT22;1420;51.324;12.344;2023-03-01T01:58:20;-1.20;99.90
2825;DHT22;1420;51.324;12.344;2023-03-01T02:00:47;-1.30;99.90
2825;DHT22;1420;51.324;12.344;2023-03-01T02:03:17;-1.30;99.90
2825;DHT22;1420;51.324;12.344;2023-03-01T02:05:50;-1.40;99.90
2825;DHT22;1420;51.324;12.344;2023-03-01T02:08:15;-1.30;99.90
2825;DHT22;1420;51.324;12.344;2023-03-01T02:10:42;-1.40;99.90
2825;DHT22;1420;51.324;12.344;2023-03-01T02:13:10;-1.40;99.90
2825;DHT22;1420;51.324;12.344;2023-03-01T02:15:38;-1.50;99.90
2825;DHT22;1420;51.324;12.344;2023-03-01T02:18:05;-1.50;99.90
2825;DHT22;1420;51.324;12.344;2023-03-01T02:20:35;-1.40;99.90
2825;DHT22;1420;51.324;12.344;2023-03-01T02:23:01;-1.30;99.90
2825;DHT22;1420;51.324;12.344;2023-03-01T02:25:35;-1.40;99.90
2825;DHT22;1420;51.324;12.344;2023-03-01T02:28:21;-1.40;99.90
2825;DHT22;1420;51.324;12.344;2023-03-01T02:30:47;-1.40;99.90
2825;DHT22;1420;51.324;12.344;2023-03-01T02:33:19;-1.40;99.90
2825;DHT22;1420;51.324;12.344;2023-03-01T02:35:46;-1.40;99.90
2825;DHT22;1420;51.324;12.344;2023-03-01T02:38:14;-1.50;99.90
2825;DHT22;1420;51.324;12.344;2023-03-01T02:40:41;-1.60;99.90
2825;DHT22;1420;51.324;12.344;2023-03-01T02:43:09;-1.70;99.90
2825;DHT22;1420;51.324;12.344;2023-03-01T02:45:36;-1.60;99.90
2825;DHT22;1420;51.324;12.344;2023-03-01T02:48:04;-1.60;99.90
2825;DHT22;1420;51.324;12.344;2023-03-01T02:50:44;-1.60;99.90
2825;DHT22;1420;51.324;12.344;2023-03-01T02:53:32;-1.70;99.90
2825;DHT22;1420;51.324;12.344;2023-03-01T02:55:54;-1.70;99.90
2825;DHT22;1420;51.324;12.344;2023-03-01T02:58:22;-1.80;99.90
2825;DHT22;1420;51.324;12.344;2023-03-01T03:00:49;-1.70;99.90
2825;DHT22;1420;51.324;12.344;2023-03-01T03:03:17;-1.90;99.90
2825;DHT22;1420;51.324;12.344;2023-03-01T03:05:44;-1.80;99.90
2825;DHT22;1420;51.324;12.344;2023-03-01T03:08:11;-1.70;99.90
2825;DHT22;1420;51.324;12.344;2023-03-01T03:10:39;-1.70;99.90
2825;DHT22;1420;51.324;12.344;2023-03-01T03:13:07;-1.60;99.90
2825;DHT22;1420;51.324;12.344;2023-03-01T03:15:33;-1.60;99.90
2825;DHT22;1420;51.324;12.344;2023-03-01T03:18:01;-1.60;99.90
2825;DHT22;1420;51.324;12.344;2023-03-01T03:20:28;-1.60;99.90
2825;DHT22;1420;51.324;12.344;2023-03-01T03:22:56;-1.60;99.90
2825;DHT22;1420;51.324;12.344;2023-03-01T03:25:23;-1.70;99.90
2825;DHT22;1420;51.324;12.344;2023-03-01T03:27:51;-1.70;99.90
2825;DHT22;1420;51.324;12.344;2023-03-01T03:30:20;-1.80;99.90
2825;DHT22;1420;51.324;12.344;2023-03-01T03:32:48;-1.60;99.90
2825;DHT22;1420;51.324;12.344;2023-03-01T03:35:24;-1.70;99.90
2825;DHT22;1420;51.324;12.344;2023-03-01T03:37:50;-1.70;99.90
2825;DHT22;1420;51.324;12.344;2023-03-01T03:40:23;-1.60;99.90
2825;DHT22;1420;51.324;12.344;2023-03-01T03:42:50;-1.70;99.90
2825;DHT22;1420;51.324;12.344;2023-03-01T03:45:17;-1.70;99.90
2825;DHT22;1420;51.324;12.344;2023-03-01T03:47:45;-1.70;99.90
2825;DHT22;1420;51.324;12.344;2023-03-01T03:50:13;-1.80;99.90
2825;DHT22;1420;51.324;12.344;2023-03-01T03:52:39;-1.70;99.90
2825;DHT22;1420;51.324;12.344;2023-03-01T03:55:07;-1.70;99.90
2825;DHT22;1420;51.324;12.344;2023-03-01T03:57:35;-1.80;99.90
2825;DHT22;1420;51.324;12.344;2023-03-01T04:00:03;-1.90;99.90
2825;DHT22;1420;51.324;12.344;2023-03-01T04:02:30;-1.70;99.90
2825;DHT22;1420;51.324;12.344;2023-03-01T04:04:57;-1.80;99.90
2825;DHT22;1420;51.324;12.344;2023-03-01T04:07:25;-1.80;99.90
2825;DHT22;1420;51.324;12.344;2023-03-01T04:09:52;-1.80;99.90
2825;DHT22;1420;51.324;12.344;2023-03-01T04:12:20;-1.90;99.90
2825;DHT22;1420;51.324;12.344;2023-03-01T04:14:47;-2.00;99.90
2825;DHT22;1420;51.324;12.344;2023-03-01T04:17:14;-2.10;99.90
2825;DHT22;1420;51.324;12.344;2023-03-01T04:19:41;-2.00;99.90
2825;DHT22;1420;51.324;12.344;2023-03-01T04:22:09;-2.20;99.90
2825;DHT22;1420;51.324;12.344;2023-03-01T04:24:37;-2.20;99.90
2825;DHT22;1420;51.324;12.344;2023-03-01T04:27:04;-2.20;99.90
2825;DHT22;1420;51.324;12.344;2023-03-01T04:29:31;-2.10;99.90
2825;DHT22;1420;51.324;12.344;2023-03-01T04:31:59;-2.20;99.90
2825;DHT22;1420;51.324;12.344;2023-03-01T04:34:26;-2.20;99.90
2825;DHT22;1420;51.324;12.344;2023-03-01T04:36:53;-2.10;99.90
2825;DHT22;1420;51.324;12.344;2023-03-01T04:39:21;-2.10;99.90
2825;DHT22;1420;51.324;12.344;2023-03-01T04:41:49;-2.20;99.90
2825;DHT22;1420;51.324;12.344;2023-03-01T04:44:17;-2.20;99.90
2825;DHT22;1420;51.324;12.344;2023-03-01T04:46:44;-2.20;99.90
2825;DHT22;1420;51.324;12.344;2023-03-01T04:49:11;-2.20;99.90
2825;DHT22;1420;51.324;12.344;2023-03-01T04:51:38;-2.10;99.90
2825;DHT22;1420;51.324;12.344;2023-03-01T04:54:06;-2.20;99.90
2825;DHT22;1420;51.324;12.344;2023-03-01T04:56:34;-2.30;99.90
2825;DHT22;1420;51.324;12.344;2023-03-01T04:59:01;-2.20;99.90
2825;DHT22;1420;51.324;12.344;2023-03-01T05:01:28;-2.20;99.90
2825;DHT22;1420;51.324;12.344;2023-03-01T05:03:56;-2.30;99.90
2825;DHT22;1420;51.324;12.344;2023-03-01T05:06:23;-2.40;99.90
2825;DHT22;1420;51.324;12.344;2023-03-01T05:08:50;-2.40;99.90
2825;DHT22;1420;51.324;12.344;2023-03-01T05:11:17;-2.40;99.90
2825;DHT22;1420;51.324;12.344;2023-03-01T05:13:46;-2.40;99.90
2825;DHT22;1420;51.324;12.344;2023-03-01T05:16:13;-2.50;99.90
2825;DHT22;1420;51.324;12.344;2023-03-01T05:18:41;-2.40;99.90
2825;DHT22;1420;51.324;12.344;2023-03-01T05:21:10;-2.40;99.90
2825;DHT22;1420;51.324;12.344;2023-03-01T05:23:36;-2.50;99.90
2825;DHT22;1420;51.324;12.344;2023-03-01T05:26:03;-2.50;99.90
2825;DHT22;1420;51.324;12.344;2023-03-01T05:28:31;-2.50;99.90
2825;DHT22;1420;51.324;12.344;2023-03-01T05:30:59;-2.50;99.90
2825;DHT22;1420;51.324;12.344;2023-03-01T05:33:26;-2.50;99.90
2825;DHT22;1420;51.324;12.344;2023-03-01T05:35:54;-2.50;99.90
2825;DHT22;1420;51.324;12.344;2023-03-01T05:38:21;-2.60;99.90
2825;DHT22;1420;51.324;12.344;2023-03-01T05:40:48;-2.60;99.90
2825;DHT22;1420;51.324;12.344;2023-03-01T05:43:16;-2.70;99.90
2825;DHT22;1420;51.324;12.344;2023-03-01T05:45:43;-2.80;99.90
2825;DHT22;1420;51.324;12.344;2023-03-01T05:48:10;-2.80;99.90
2825;DHT22;1420;51.324;12.344;2023-03-01T05:50:41;-2.90;99.90
2825;DHT22;1420;51.324;12.344;2023-03-01T05:53:09;-2.90;99.90
2825;DHT22;1420;51.324;12.344;2023-03-01T05:55:34;-2.80;99.90
2825;DHT22;1420;51.324;12.344;2023-03-01T05:58:02;-2.70;99.90
2825;DHT22;1420;51.324;12.344;2023-03-01T06:00:30;-2.70;99.90
2825;DHT22;1420;51.324;12.344;2023-03-01T06:02:58;-2.70;99.90
2825;DHT22;1420;51.324;12.344;2023-03-01T06:05:25;-2.70;99.90
2825;DHT22;1420;51.324;12.344;2023-03-01T06:07:52;-2.70;99.90
2825;DHT22;1420;51.324;12.344;2023-03-01T06:10:20;-2.60;99.90
2825;DHT22;1420;51.324;12.344;2023-03-01T06:12:46;-2.70;99.90
2825;DHT22;1420;51.324;12.344;2023-03-01T06:15:14;-2.50;99.90
2825;DHT22;1420;51.324;12.344;2023-03-01T06:17:42;-2.50;99.90
2825;DHT22;1420;51.324;12.344;2023-03-01T06:20:12;-2.50;99.90
2825;DHT22;1420;51.324;12.344;2023-03-01T06:22:38;-2.60;99.90
2825;DHT22;1420;51.324;12.344;2023-03-01T06:25:06;-2.50;99.90
2825;DHT22;1420;51.324;12.344;2023-03-01T06:27:33;-2.60;99.90
2825;DHT22;1420;51.324;12.344;2023-03-01T06:30:00;-2.50;99.90
2825;DHT22;1420;51.324;12.344;2023-03-01T06:32:28;-2.50;99.90
2825;DHT22;1420;51.324;12.344;2023-03-01T06:34:55;-2.50;99.90
2825;DHT22;1420;51.324;12.344;2023-03-01T06:37:23;-2.30;99.90
2825;DHT22;1420;51.324;12.344;2023-03-01T06:39:50;-2.30;99.90
2825;DHT22;1420;51.324;12.344;2023-03-01T06:42:18;-2.20;99.90
2825;DHT22;1420;51.324;12.344;2023-03-01T06:44:45;-2.20;99.90
2825;DHT22;1420;51.324;12.344;2023-03-01T06:47:12;-2.10;99.90
2825;DHT22;1420;51.324;12.344;2023-03-01T06:49:40;-2.00;99.90
2825;DHT22;1420;51.324;12.344;2023-03-01T06:52:07;-1.70;99.90
2825;DHT22;1420;51.324;12.344;2023-03-01T06:54:34;-1.50;99.90
2825;DHT22;1420;51.324;12.344;2023-03-01T06:57:02;-0.20;99.90
2825;DHT22;1420;51.324;12.344;2023-03-01T06:59:30;-0.30;99.90
2825;DHT22;1420;51.324;12.344;2023-03-01T07:01:57;0.40;99.90
2825;DHT22;1420;51.324;12.344;2023-03-01T07:04:25;1.20;99.90
2825;DHT22;1420;51.324;12.344;2023-03-01T07:06:52;1.90;99.90
2825;DHT22;1420;51.324;12.344;2023-03-01T07:09:19;2.30;99.90
2825;DHT22;1420;51.324;12.344;2023-03-01T07:11:47;2.60;99.90
2825;DHT22;1420;51.324;12.344;2023-03-01T07:14:15;2.40;99.90
2825;DHT22;1420;51.324;12.344;2023-03-01T07:16:42;2.40;99.90
2825;DHT22;1420;51.324;12.344;2023-03-01T07:19:09;2.80;99.90
2825;DHT22;1420;51.324;12.344;2023-03-01T07:21:37;2.50;99.90
2825;DHT22;1420;51.324;12.344;2023-03-01T07:24:05;3.20;99.90
2825;DHT22;1420;51.324;12.344;2023-03-01T07:26:32;4.00;99.90
2825;DHT22;1420;51.324;12.344;2023-03-01T07:29:00;3.60;99.90
2825;DHT22;1420;51.324;12.344;2023-03-01T07:31:28;3.80;99.90
2825;DHT22;1420;51.324;12.344;2023-03-01T07:33:55;3.80;99.90
2825;DHT22;1420;51.324;12.344;2023-03-01T07:36:23;4.20;98.10
2825;DHT22;1420;51.324;12.344;2023-03-01T07:38:50;4.10;97.20
2825;DHT22;1420;51.324;12.344;2023-03-01T07:41:17;4.40;97.10
2825;DHT22;1420;51.324;12.344;2023-03-01T07:43:44;4.30;97.50
2825;DHT22;1420;51.324;12.344;2023-03-01T07:46:12;5.70;94.60
2825;DHT22;1420;51.324;12.344;2023-03-01T07:48:39;5.70;94.60
2825;DHT22;1420;51.324;12.344;2023-03-01T07:51:07;6.20;94.80
2825;DHT22;1420;51.324;12.344;2023-03-01T07:53:34;5.60;91.70
2825;DHT22;1420;51.324;12.344;2023-03-01T07:56:03;5.90;91.30
2825;DHT22;1420;51.324;12.344;2023-03-01T07:58:30;6.10;89.30
2825;DHT22;1420;51.324;12.344;2023-03-01T08:01:00;6.20;86.30
2825;DHT22;1420;51.324;12.344;2023-03-01T08:03:24;5.90;88.70
2825;DHT22;1420;51.324;12.344;2023-03-01T08:05:52;7.10;88.10
2825;DHT22;1420;51.324;12.344;2023-03-01T08:08:20;6.60;91.20
2825;DHT22;1420;51.324;12.344;2023-03-01T08:10:47;6.50;91.10
2825;DHT22;1420;51.324;12.344;2023-03-01T08:13:15;5.70;91.10
2825;DHT22;1420;51.324;12.344;2023-03-01T08:15:42;5.70;88.70
2825;DHT22;1420;51.324;12.344;2023-03-01T08:18:10;5.50;85.70
2825;DHT22;1420;51.324;12.344;2023-03-01T08:20:38;6.50;82.70
2825;DHT22;1420;51.324;12.344;2023-03-01T08:23:06;6.80;80.60
2825;DHT22;1420;51.324;12.344;2023-03-01T08:25:34;6.70;80.50
2825;DHT22;1420;51.324;12.344;2023-03-01T08:28:01;6.00;83.60
2825;DHT22;1420;51.324;12.344;2023-03-01T08:30:28;5.30;84.20
2825;DHT22;1420;51.324;12.344;2023-03-01T08:32:55;5.50;84.90
2825;DHT22;1420;51.324;12.344;2023-03-01T08:35:22;5.70;85.30
2825;DHT22;1420;51.324;12.344;2023-03-01T08:37:50;5.90;86.70
2825;DHT22;1420;51.324;12.344;2023-03-01T08:40:17;5.90;81.50
2825;DHT22;1420;51.324;12.344;2023-03-01T08:42:44;6.00;81.50
2825;DHT22;1420;51.324;12.344;2023-03-01T08:45:11;5.90;83.20
2825;DHT22;1420;51.324;12.344;2023-03-01T08:47:38;6.10;79.50
2825;DHT22;1420;51.324;12.344;2023-03-01T08:50:06;5.60;84.40
2825;DHT22;1420;51.324;12.344;2023-03-01T08:52:33;5.60;82.30
2825;DHT22;1420;51.324;12.344;2023-03-01T08:55:01;6.10;81.80
2825;DHT22;1420;51.324;12.344;2023-03-01T08:57:29;6.00;81.70
2825;DHT22;1420;51.324;12.344;2023-03-01T08:59:56;6.70;79.30
2825;DHT22;1420;51.324;12.344;2023-03-01T09:02:23;5.90;80.90
2825;DHT22;1420;51.324;12.344;2023-03-01T09:04:51;6.00;80.70
2825;DHT22;1420;51.324;12.344;2023-03-01T09:07:18;5.90;80.60
2825;DHT22;1420;51.324;12.344;2023-03-01T09:09:45;6.10;80.90
2825;DHT22;1420;51.324;12.344;2023-03-01T09:12:13;6.30;79.70
2825;DHT22;1420;51.324;12.344;2023-03-01T09:14:41;6.30;79.50
2825;DHT22;1420;51.324;12.344;2023-03-01T09:17:08;5.30;79.30
2825;DHT22;1420;51.324;12.344;2023-03-01T09:19:35;5.40;81.70
2825;DHT22;1420;51.324;12.344;2023-03-01T09:22:04;5.80;79.80
2825;DHT22;1420;51.324;12.344;2023-03-01T09:24:31;5.70;79.70
2825;DHT22;1420;51.324;12.344;2023-03-01T09:26:58;5.80;79.10
2825;DHT22;1420;51.324;12.344;2023-03-01T09:29:26;5.90;78.90
2825;DHT22;1420;51.324;12.344;2023-03-01T09:31:54;5.50;76.70
2825;DHT22;1420;51.324;12.344;2023-03-01T09:34:22;5.40;76.60
2825;DHT22;1420;51.324;12.344;2023-03-01T09:36:50;6.10;82.80
2825;DHT22;1420;51.324;12.344;2023-03-01T09:39:18;6.10;82.30
2825;DHT22;1420;51.324;12.344;2023-03-01T09:44:34;6.20;76.10
2825;DHT22;1420;51.324;12.344;2023-03-01T09:47:03;6.30;76.10
2825;DHT22;1420;51.324;12.344;2023-03-01T09:49:31;6.20;75.40
2825;DHT22;1420;51.324;12.344;2023-03-01T09:54:31;6.70;73.60
2825;DHT22;1420;51.324;12.344;2023-03-01T09:57:05;7.10;73.60
2825;DHT22;1420;51.324;12.344;2023-03-01T10:02:20;6.60;73.00
2825;DHT22;1420;51.324;12.344;2023-03-01T10:04:48;6.50;72.80
2825;DHT22;1420;51.324;12.344;2023-03-01T10:07:22;6.70;75.90
2825;DHT22;1420;51.324;12.344;2023-03-01T10:09:48;7.00;72.60
2825;DHT22;1420;51.324;12.344;2023-03-01T10:12:16;6.90;72.40
2825;DHT22;1420;51.324;12.344;2023-03-01T10:17:26;6.70;74.50
2825;DHT22;1420;51.324;12.344;2023-03-01T10:19:52;6.70;73.30
2825;DHT22;1420;51.324;12.344;2023-03-01T10:22:20;6.70;73.40
2825;DHT22;1420;51.324;12.344;2023-03-01T10:24:49;6.60;71.80
2825;DHT22;1420;51.324;12.344;2023-03-01T10:27:29;6.70;73.30
2825;DHT22;1420;51.324;12.344;2023-03-01T10:30:05;6.50;73.70
2825;DHT22;1420;51.324;12.344;2023-03-01T10:32:29;6.50;73.70
2825;DHT22;1420;51.324;12.344;2023-03-01T10:34:56;6.30;75.30
2825;DHT22;1420;51.324;12.344;2023-03-01T10:37:24;5.90;76.30
2825;DHT22;1420;51.324;12.344;2023-03-01T10:40:05;5.90;76.30
2825;DHT22;1420;51.324;12.344;2023-03-01T10:42:33;6.10;75.10
2825;DHT22;1420;51.324;12.344;2023-03-01T10:47:36;5.50;72.70
2825;DHT22;1420;51.324;12.344;2023-03-01T10:50:04;5.80;71.20
2825;DHT22;1420;51.324;12.344;2023-03-01T10:52:35;5.60;71.80
2825;DHT22;1420;51.324;12.344;2023-03-01T10:55:02;5.30;72.30
2825;DHT22;1420;51.324;12.344;2023-03-01T10:57:30;5.20;74.60
2825;DHT22;1420;51.324;12.344;2023-03-01T11:02:39;6.10;72.80
2825;DHT22;1420;51.324;12.344;2023-03-01T11:05:16;6.20;72.00
2825;DHT22;1420;51.324;12.344;2023-03-01T11:07:46;6.20;72.00
2825;DHT22;1420;51.324;12.344;2023-03-01T11:10:17;5.90;69.40
2825;DHT22;1420;51.324;12.344;2023-03-01T11:12:40;6.10;69.30
2825;DHT22;1420;51.324;12.344;2023-03-01T11:15:15;6.30;70.90
2825;DHT22;1420;51.324;12.344;2023-03-01T11:17:35;6.20;69.80
2825;DHT22;1420;51.324;12.344;2023-03-01T11:20:15;6.80;69.20
2825;DHT22;1420;51.324;12.344;2023-03-01T11:22:36;6.80;70.10
2825;DHT22;1420;51.324;12.344;2023-03-01T11:25:04;6.10;73.20
2825;DHT22;1420;51.324;12.344;2023-03-01T11:27:32;5.70;74.70
2825;DHT22;1420;51.324;12.344;2023-03-01T11:30:03;5.40;75.70
2825;DHT22;1420;51.324;12.344;2023-03-01T11:32:31;5.20;78.30
2825;DHT22;1420;51.324;12.344;2023-03-01T11:35:03;5.40;78.10
2825;DHT22;1420;51.324;12.344;2023-03-01T11:37:32;5.30;78.00
2825;DHT22;1420;51.324;12.344;2023-03-01T11:40:10;5.00;77.30
2825;DHT22;1420;51.324;12.344;2023-03-01T11:42:43;5.00;77.30
2825;DHT22;1420;51.324;12.344;2023-03-01T11:45:10;4.90;79.00
2825;DHT22;1420;51.324;12.344;2023-03-01T11:47:54;4.80;79.00
2825;DHT22;1420;51.324;12.344;2023-03-01T11:50:23;4.80;78.90
2825;DHT22;1420;51.324;12.344;2023-03-01T11:53:13;4.80;80.00
2825;DHT22;1420;51.324;12.344;2023-03-01T11:58:43;4.90;79.80
2825;DHT22;1420;51.324;12.344;2023-03-01T12:01:16;4.90;80.40
2825;DHT22;1420;51.324;12.344;2023-03-01T12:04:51;5.00;80.10
2825;DHT22;1420;51.324;12.344;2023-03-01T12:06:29;4.90;80.60
2825;DHT22;1420;51.324;12.344;2023-03-01T12:09:17;4.80;80.40
2825;DHT22;1420;51.324;12.344;2023-03-01T12:11:49;4.80;80.70
2825;DHT22;1420;51.324;12.344;2023-03-01T12:14:20;4.90;80.80
2825;DHT22;1420;51.324;12.344;2023-03-01T12:17:05;4.80;79.70
2825;DHT22;1420;51.324;12.344;2023-03-01T12:19:37;4.80;79.70
2825;DHT22;1420;51.324;12.344;2023-03-01T12:27:45;4.50;80.70
2825;DHT22;1420;51.324;12.344;2023-03-01T12:30:45;4.40;79.40
2825;DHT22;1420;51.324;12.344;2023-03-01T12:33:18;4.40;79.00
2825;DHT22;1420;51.324;12.344;2023-03-01T12:35:51;4.60;77.70
2825;DHT22;1420;51.324;12.344;2023-03-01T12:38:39;4.60;76.90
2825;DHT22;1420;51.324;12.344;2023-03-01T12:41:17;4.60;77.70
2825;DHT22;1420;51.324;12.344;2023-03-01T12:43:58;4.60;77.60
2825;DHT22;1420;51.324;12.344;2023-03-01T12:46:50;4.50;74.90
2825;DHT22;1420;51.324;12.344;2023-03-01T12:49:18;4.40;74.90
2825;DHT22;1420;51.324;12.344;2023-03-01T12:51:53;4.50;73.90
2825;DHT22;1420;51.324;12.344;2023-03-01T12:54:25;4.50;75.20
2825;DHT22;1420;51.324;12.344;2023-03-01T12:56:49;4.60;74.70
2825;DHT22;1420;51.324;12.344;2023-03-01T12:59:21;4.50;73.80
2825;DHT22;1420;51.324;12.344;2023-03-01T13:04:53;4.70;76.50
2825;DHT22;1420;51.324;12.344;2023-03-01T13:07:34;4.70;76.50
2825;DHT22;1420;51.324;12.344;2023-03-01T13:10:40;4.80;77.80
2825;DHT22;1420;51.324;12.344;2023-03-01T13:12:51;4.90;78.00
2825;DHT22;1420;51.324;12.344;2023-03-01T13:15:26;4.60;77.90
2825;DHT22;1420;51.324;12.344;2023-03-01T13:18:01;4.90;79.50
2825;DHT22;1420;51.324;12.344;2023-03-01T13:20:31;4.90;79.50
2825;DHT22;1420;51.324;12.344;2023-03-01T13:23:07;4.80;79.10
2825;DHT22;1420;51.324;12.344;2023-03-01T13:25:33;4.80;79.10
2825;DHT22;1420;51.324;12.344;2023-03-01T13:28:35;4.90;77.90
2825;DHT22;1420;51.324;12.344;2023-03-01T13:30:40;5.00;74.80
2825;DHT22;1420;51.324;12.344;2023-03-01T13:35:46;5.00;75.00
2825;DHT22;1420;51.324;12.344;2023-03-01T13:40:57;5.00;73.60
2825;DHT22;1420;51.324;12.344;2023-03-01T13:43:28;5.00;74.10
2825;DHT22;1420;51.324;12.344;2023-03-01T13:45:54;5.10;74.10
2825;DHT22;1420;51.324;12.344;2023-03-01T13:48:23;5.10;74.00
2825;DHT22;1420;51.324;12.344;2023-03-01T13:50:53;5.20;72.50
2825;DHT22;1420;51.324;12.344;2023-03-01T13:53:19;5.10;71.70
2825;DHT22;1420;51.324;12.344;2023-03-01T13:55:47;5.20;71.80
2825;DHT22;1420;51.324;12.344;2023-03-01T13:58:20;5.20;71.70
2825;DHT22;1420;51.324;12.344;2023-03-01T14:00:45;5.20;69.60
2825;DHT22;1420;51.324;12.344;2023-03-01T14:03:16;5.20;69.80
2825;DHT22;1420;51.324;12.344;2023-03-01T14:05:43;5.10;69.60
2825;DHT22;1420;51.324;12.344;2023-03-01T14:08:19;5.30;68.90
2825;DHT22;1420;51.324;12.344;2023-03-01T14:10:50;5.30;67.60
2825;DHT22;1420;51.324;12.344;2023-03-01T14:13:20;5.40;68.40
2825;DHT22;1420;51.324;12.344;2023-03-01T14:15:42;5.40;68.00
2825;DHT22;1420;51.324;12.344;2023-03-01T14:18:26;5.50;66.70
2825;DHT22;1420;51.324;12.344;2023-03-01T14:20:52;5.40;67.80
2825;DHT22;1420;51.324;12.344;2023-03-01T14:23:20;5.30;67.30
2825;DHT22;1420;51.324;12.344;2023-03-01T14:25:48;5.50;66.00
2825;DHT22;1420;51.324;12.344;2023-03-01T14:28:23;5.40;65.80
2825;DHT22;1420;51.324;12.344;2023-03-01T14:30:50;5.40;64.60
2825;DHT22;1420;51.324;12.344;2023-03-01T14:33:26;5.60;63.90
2825;DHT22;1420;51.324;12.344;2023-03-01T14:35:53;5.50;63.70
2825;DHT22;1420;51.324;12.344;2023-03-01T14:38:22;5.60;61.30
2825;DHT22;1420;51.324;12.344;2023-03-01T14:40:50;5.50;59.50
2825;DHT22;1420;51.324;12.344;2023-03-01T14:43:17;5.50;58.70
2825;DHT22;1420;51.324;12.344;2023-03-01T14:45:46;5.50;58.30
2825;DHT22;1420;51.324;12.344;2023-03-01T14:48:12;5.60;57.70
2825;DHT22;1420;51.324;12.344;2023-03-01T14:50:41;5.60;57.90
2825;DHT22;1420;51.324;12.344;2023-03-01T14:53:11;5.60;58.00
2825;DHT22;1420;51.324;12.344;2023-03-01T14:55:35;5.60;57.70
2825;DHT22;1420;51.324;12.344;2023-03-01T14:58:03;5.50;57.50
2825;DHT22;1420;51.324;12.344;2023-03-01T15:00:30;5.60;56.80
2825;DHT22;1420;51.324;12.344;2023-03-01T15:02:59;5.50;57.00
2825;DHT22;1420;51.324;12.344;2023-03-01T15:05:29;5.50;57.20
2825;DHT22;1420;51.324;12.344;2023-03-01T15:07:58;5.50;57.70
2825;DHT22;1420;51.324;12.344;2023-03-01T15:10:27;5.50;57.50
2825;DHT22;1420;51.324;12.344;2023-03-01T15:12:53;5.50;57.50
2825;DHT22;1420;51.324;12.344;2023-03-01T15:15:30;5.60;57.90
2825;DHT22;1420;51.324;12.344;2023-03-01T15:17:54;5.60;57.70
2825;DHT22;1420;51.324;12.344;2023-03-01T15:20:20;5.50;57.70
2825;DHT22;1420;51.324;12.344;2023-03-01T15:22:48;5.60;58.00
2825;DHT22;1420;51.324;12.344;2023-03-01T15:25:16;5.60;57.90
2825;DHT22;1420;51.324;12.344;2023-03-01T15:27:45;5.60;57.90
2825;DHT22;1420;51.324;12.344;2023-03-01T15:30:21;5.60;57.80
2825;DHT22;1420;51.324;12.344;2023-03-01T15:32:47;5.60;56.80
2825;DHT22;1420;51.324;12.344;2023-03-01T15:37:53;5.50;57.50
2825;DHT22;1420;51.324;12.344;2023-03-01T15:40:23;5.60;57.70
2825;DHT22;1420;51.324;12.344;2023-03-01T15:42:50;5.50;57.70
2825;DHT22;1420;51.324;12.344;2023-03-01T15:45:21;5.50;58.20
2825;DHT22;1420;51.324;12.344;2023-03-01T15:47:48;5.50;58.50
2825;DHT22;1420;51.324;12.344;2023-03-01T15:50:16;5.60;58.40
2825;DHT22;1420;51.324;12.344;2023-03-01T15:52:42;5.60;58.60
2825;DHT22;1420;51.324;12.344;2023-03-01T15:55:19;5.40;59.40
2825;DHT22;1420;51.324;12.344;2023-03-01T15:57:45;5.40;59.40
2825;DHT22;1420;51.324;12.344;2023-03-01T16:00:13;5.40;58.10
2825;DHT22;1420;51.324;12.344;2023-03-01T16:02:41;5.30;58.40
2825;DHT22;1420;51.324;12.344;2023-03-01T16:07:44;5.30;57.70
2825;DHT22;1420;51.324;12.344;2023-03-01T16:10:12;5.40;57.70
2825;DHT22;1420;51.324;12.344;2023-03-01T16:12:40;5.30;57.80
2825;DHT22;1420;51.324;12.344;2023-03-01T16:15:26;5.20;57.70
2825;DHT22;1420;51.324;12.344;2023-03-01T16:17:53;5.20;58.20
2825;DHT22;1420;51.324;12.344;2023-03-01T16:20:20;5.20;58.20
2825;DHT22;1420;51.324;12.344;2023-03-01T16:22:48;5.10;58.10
2825;DHT22;1420;51.324;12.344;2023-03-01T16:25:16;5.10;58.10
2825;DHT22;1420;51.324;12.344;2023-03-01T16:27:43;5.10;58.60
2825;DHT22;1420;51.324;12.344;2023-03-01T16:30:10;5.00;57.70
2825;DHT22;1420;51.324;12.344;2023-03-01T16:32:38;5.10;58.20
2825;DHT22;1420;51.324;12.344;2023-03-01T16:35:06;5.00;58.20
2825;DHT22;1420;51.324;12.344;2023-03-01T16:37:33;5.00;57.50
2825;DHT22;1420;51.324;12.344;2023-03-01T16:40:02;5.00;58.00
2825;DHT22;1420;51.324;12.344;2023-03-01T16:42:29;4.90;57.80